KRYN

Ryan Field Airport

Tucson, Arizona, USA
METAR KRYN 162145Z 33006KT 10SM CLR 21/M06 A3015
Observed Flight Rules
Dec-16 @ 21:45 UTC (an hour ago) Visual Flight Rules
Wind Visibility Clouds
330° at 6 knots 10 miles
  • Clear skies
Temperatures Readings
Current 21°C / 70°F
Dewpoint -6°C / 21°F
Humidity 16%
Altimeter 30.15" Hg
Pressure 1021 hPa
Elevation 737
METAR KRYN 162145Z 33006KT 10SM CLR 21/M06 A3015
Observed Flight Rules
Dec-16 @ 21:45 UTC
(an hour ago)
VFR
Wind Visibility
330° at 6 knots 10 miles
Clouds
  • Clear skies
Temperature Dewpoint
21°C / 70°F -6°C / 21°F
Humidity Altimeter Pressure
16% 30.15" Hg 1021 hPa